createdAt,value
2022-11-15T00:00:35.976Z,5.90
2022-11-15T00:03:57.711Z,5.80
2022-11-15T00:07:48.193Z,5.80
2022-11-15T00:11:03.355Z,5.80
2022-11-15T00:14:26.376Z,5.80
2022-11-15T00:17:51.712Z,5.80
2022-11-15T00:21:15.581Z,5.80
2022-11-15T00:24:37.273Z,5.80
2022-11-15T00:27:59.606Z,5.80
2022-11-15T00:31:22.901Z,5.80
2022-11-15T00:34:44.677Z,5.80
2022-11-15T00:38:06.362Z,5.80
2022-11-15T00:41:28.176Z,5.80
2022-11-15T00:44:50.204Z,5.80
2022-11-15T00:48:13.575Z,5.80
2022-11-15T00:51:35.576Z,5.80
2022-11-15T00:54:57.428Z,5.70
2022-11-15T00:58:19.353Z,5.70
2022-11-15T01:01:41.228Z,5.70
2022-11-15T01:05:05.078Z,5.70
2022-11-15T01:08:26.936Z,5.60
2022-11-15T01:11:48.908Z,5.60
2022-11-15T01:15:11.175Z,5.70
2022-11-15T01:18:33.094Z,5.60
2022-11-15T01:21:56.468Z,5.60
2022-11-15T01:25:18.579Z,5.60
2022-11-15T01:28:42.668Z,5.60
2022-11-15T01:32:04.858Z,5.60
2022-11-15T01:35:26.577Z,5.60
2022-11-15T01:38:55.022Z,5.60
2022-11-15T01:42:17.128Z,5.60
2022-11-15T01:45:39.222Z,5.60
2022-11-15T01:49:06.011Z,5.60
2022-11-15T01:52:30.970Z,5.60
2022-11-15T01:55:54.405Z,5.50
2022-11-15T01:59:16.804Z,5.50
2022-11-15T02:02:40.220Z,5.50
2022-11-15T02:06:02.056Z,5.40
2022-11-15T02:09:23.767Z,5.40
2022-11-15T02:12:47.639Z,5.40
2022-11-15T02:16:20.455Z,5.40
2022-11-15T02:20:06.499Z,5.40
2022-11-15T02:24:01.394Z,5.40
2022-11-15T02:27:49.582Z,5.40
2022-11-15T02:31:17.571Z,5.40
2022-11-15T02:34:50.309Z,5.40
2022-11-15T02:38:20.042Z,5.40
2022-11-15T02:41:48.834Z,5.40
2022-11-15T02:45:12.733Z,5.40
2022-11-15T02:48:37.271Z,5.40
2022-11-15T02:51:59.231Z,5.30
2022-11-15T02:55:29.547Z,5.30
2022-11-15T02:59:09.347Z,5.20
2022-11-15T03:02:44.271Z,5.10
2022-11-15T03:06:16.633Z,5.20
2022-11-15T03:09:45.200Z,5.10
2022-11-15T03:13:19.329Z,5.10
2022-11-15T03:16:46.538Z,5.10
2022-11-15T03:20:10.806Z,5.10
2022-11-15T03:23:35.420Z,5.10
2022-11-15T03:26:58.827Z,5.00
2022-11-15T03:30:21.119Z,5.00
2022-11-15T03:33:44.671Z,4.90
2022-11-15T03:37:07.815Z,4.90
2022-11-15T03:40:36.773Z,4.80
2022-11-15T03:44:06.594Z,4.80
2022-11-15T03:47:32.534Z,4.90
2022-11-15T03:50:54.709Z,4.90
2022-11-15T03:54:16.327Z,4.90
2022-11-15T03:57:39.641Z,4.90
2022-11-15T04:01:01.639Z,4.90
2022-11-15T04:04:23.550Z,4.90
2022-11-15T04:07:45.484Z,4.80
2022-11-15T04:11:07.416Z,4.80
2022-11-15T04:14:30.476Z,4.80
2022-11-15T04:17:54.178Z,4.80
2022-11-15T04:21:32.861Z,4.80
2022-11-15T04:24:54.734Z,4.80
2022-11-15T04:28:16.875Z,4.70
2022-11-15T04:31:39.936Z,4.60
2022-11-15T04:35:01.707Z,4.60
2022-11-15T04:38:23.257Z,4.60
2022-11-15T04:41:44.884Z,4.60
2022-11-15T04:45:07.015Z,4.70
2022-11-15T04:48:30.204Z,4.60
2022-11-15T04:51:52.058Z,4.70
2022-11-15T04:55:13.897Z,4.70
2022-11-15T04:58:35.806Z,4.70
2022-11-15T05:01:57.750Z,4.70
2022-11-15T05:05:19.975Z,4.70
2022-11-15T05:08:42.028Z,4.70
2022-11-15T05:12:04.186Z,4.70
2022-11-15T05:15:26.288Z,4.60
2022-11-15T05:18:52.219Z,4.70
2022-11-15T05:22:15.563Z,4.70
2022-11-15T05:25:38.911Z,4.70
2022-11-15T05:29:01.347Z,4.70
2022-11-15T05:32:23.590Z,4.60
2022-11-15T05:35:48.828Z,4.60
2022-11-15T05:39:13.001Z,4.60
2022-11-15T05:42:35.663Z,4.60
2022-11-15T05:46:01.857Z,4.60
2022-11-15T05:49:29.371Z,4.60
2022-11-15T05:52:51.488Z,4.60
2022-11-15T05:56:15.933Z,4.60
2022-11-15T05:59:38.334Z,4.60
2022-11-15T06:02:59.961Z,4.60
2022-11-15T06:06:21.609Z,4.50
2022-11-15T06:09:43.586Z,4.50
2022-11-15T06:13:07.528Z,4.50
2022-11-15T06:16:29.959Z,4.50
2022-11-15T06:19:51.826Z,4.50
2022-11-15T06:23:14.279Z,4.50
2022-11-15T06:26:36.409Z,4.50
2022-11-15T06:29:59.703Z,4.50
2022-11-15T06:33:21.779Z,4.50
2022-11-15T06:36:43.798Z,4.50
2022-11-15T06:40:06.012Z,4.50
2022-11-15T06:43:27.946Z,4.50
2022-11-15T06:46:51.116Z,4.60
2022-11-15T06:50:13.016Z,4.40
2022-11-15T06:53:35.294Z,4.40
2022-11-15T06:56:57.244Z,4.50
2022-11-15T07:00:20.285Z,4.50
2022-11-15T07:03:45.069Z,4.50
2022-11-15T07:07:06.840Z,4.60
2022-11-15T07:10:29.247Z,4.60
2022-11-15T07:13:50.765Z,4.50
2022-11-15T07:17:12.528Z,4.60
2022-11-15T07:20:35.703Z,4.70
2022-11-15T07:23:57.468Z,4.60
2022-11-15T07:27:19.732Z,4.60
2022-11-15T07:30:45.195Z,4.60
2022-11-15T07:34:07.280Z,4.60
2022-11-15T07:37:30.755Z,4.70
2022-11-15T07:40:59.699Z,4.70
2022-11-15T07:44:22.113Z,4.70
2022-11-15T07:47:47.668Z,4.80
2022-11-15T07:51:14.218Z,4.80
2022-11-15T07:54:37.855Z,4.80
2022-11-15T07:58:03.809Z,4.90
2022-11-15T08:01:25.399Z,4.90
2022-11-15T08:04:47.302Z,4.90
2022-11-15T08:08:10.098Z,4.90
2022-11-15T08:11:33.415Z,4.90
2022-11-15T08:14:55.247Z,5.00
2022-11-15T08:18:18.493Z,5.00
2022-11-15T08:21:40.440Z,5.20
2022-11-15T08:25:02.709Z,5.20
2022-11-15T08:28:25.968Z,5.00
2022-11-15T08:31:47.781Z,5.10
2022-11-15T08:35:10.467Z,5.20
2022-11-15T08:38:32.739Z,5.30
2022-11-15T08:41:54.628Z,5.40
2022-11-15T08:45:18.536Z,5.40
2022-11-15T08:48:40.675Z,5.40
2022-11-15T08:52:02.586Z,5.40
2022-11-15T08:55:24.964Z,5.30
2022-11-15T08:58:48.921Z,5.30
2022-11-15T09:02:16.040Z,5.30
2022-11-15T09:05:39.044Z,5.10
2022-11-15T09:09:02.549Z,5.10
2022-11-15T09:12:24.849Z,5.30
2022-11-15T09:15:46.820Z,5.30
2022-11-15T09:19:11.901Z,5.20
2022-11-15T09:22:34.484Z,5.30
2022-11-15T09:26:01.301Z,5.40
2022-11-15T09:29:22.895Z,5.50
2022-11-15T09:32:44.688Z,5.40
2022-11-15T09:36:10.608Z,5.30
2022-11-15T09:39:33.267Z,5.30
2022-11-15T09:43:07.366Z,5.60
2022-11-15T09:46:41.499Z,5.70
2022-11-15T09:50:13.183Z,5.70
2022-11-15T09:53:47.942Z,5.70
2022-11-15T09:56:48.305Z,5.90
2022-11-15T10:00:30.931Z,5.70
2022-11-15T10:03:31.401Z,5.70
2022-11-15T10:06:40.905Z,5.70
2022-11-15T10:09:50.073Z,5.80
2022-11-15T10:12:55.156Z,5.90
2022-11-15T10:16:06.666Z,6.00
2022-11-15T10:19:16.716Z,5.90
2022-11-15T10:22:30.586Z,6.00
2022-11-15T10:25:36.640Z,5.90
2022-11-15T10:28:40.101Z,6.00
2022-11-15T10:31:43.826Z,6.10
2022-11-15T10:34:47.440Z,6.00
2022-11-15T10:37:51.266Z,6.00
2022-11-15T10:41:10.056Z,6.30
2022-11-15T10:44:31.125Z,6.70
2022-11-15T10:47:39.150Z,6.70
2022-11-15T10:50:44.605Z,6.40
2022-11-15T10:53:48.721Z,6.50
2022-11-15T10:57:01.697Z,6.50
2022-11-15T11:00:08.939Z,6.60
2022-11-15T11:03:31.803Z,6.70
2022-11-15T11:06:49.480Z,6.80
2022-11-15T11:10:00.544Z,6.70
2022-11-15T11:13:24.170Z,6.40
2022-11-15T11:16:44.279Z,6.30
2022-11-15T11:20:02.018Z,6.30
2022-11-15T11:23:18.402Z,6.50
2022-11-15T11:26:37.720Z,6.40
2022-11-15T11:29:53.829Z,6.60
2022-11-15T11:33:07.448Z,6.60
2022-11-15T11:36:24.265Z,6.50
2022-11-15T11:39:39.956Z,6.80
2022-11-15T11:42:55.116Z,6.90
2022-11-15T11:46:37.059Z,7.10
2022-11-15T11:49:47.048Z,7.20
2022-11-15T11:53:04.020Z,7.20
2022-11-15T11:56:16.872Z,7.40
2022-11-15T11:59:31.120Z,7.10
2022-11-15T12:02:40.592Z,6.90
2022-11-15T12:05:47.130Z,7.00
2022-11-15T12:08:55.830Z,7.00
2022-11-15T12:12:05.169Z,6.90
2022-11-15T12:15:17.898Z,7.00
2022-11-15T12:18:23.037Z,6.80
2022-11-15T12:21:37.036Z,6.80
2022-11-15T12:24:43.755Z,6.70
2022-11-15T12:27:52.113Z,6.80
2022-11-15T12:30:58.464Z,7.00
2022-11-15T12:34:07.489Z,6.90
2022-11-15T12:37:53.686Z,7.10
2022-11-15T12:41:16.183Z,7.10
2022-11-15T12:45:01.158Z,7.10
2022-11-15T12:48:41.908Z,7.30
2022-11-15T12:52:08.577Z,7.30
2022-11-15T12:55:34.186Z,7.10
2022-11-15T12:58:44.472Z,7.00
2022-11-15T13:02:02.334Z,6.90
2022-11-15T13:06:08.803Z,6.60
2022-11-15T13:09:50.958Z,6.80
2022-11-15T13:12:58.976Z,6.90
2022-11-15T13:16:03.533Z,7.00
2022-11-15T13:19:07.039Z,6.90
2022-11-15T13:22:29.552Z,6.80
2022-11-15T13:25:55.276Z,6.70
2022-11-15T13:29:01.595Z,6.60
2022-11-15T13:32:05.054Z,6.60
2022-11-15T13:35:10.091Z,6.70
2022-11-15T13:38:21.102Z,6.80
2022-11-15T13:41:26.272Z,6.70
2022-11-15T13:44:32.909Z,6.80
2022-11-15T13:47:36.219Z,6.70
2022-11-15T13:50:41.894Z,6.60
2022-11-15T13:53:48.709Z,6.70
2022-11-15T13:56:56.877Z,6.80
2022-11-15T14:00:05.885Z,6.80
2022-11-15T14:03:21.408Z,6.60
2022-11-15T14:06:28.134Z,6.60
2022-11-15T14:09:37.854Z,6.60
2022-11-15T14:12:52.501Z,6.50
2022-11-15T14:16:14.209Z,6.50
2022-11-15T14:19:37.154Z,6.40
2022-11-15T14:22:53.832Z,6.40
2022-11-15T14:25:58.677Z,6.40
2022-11-15T14:29:26.531Z,6.20
2022-11-15T14:32:39.452Z,6.20
2022-11-15T14:35:42.748Z,6.30
2022-11-15T14:38:46.196Z,6.30
2022-11-15T14:41:49.382Z,6.30
2022-11-15T14:44:53.471Z,6.30
2022-11-15T14:47:58.135Z,6.20
2022-11-15T14:51:01.348Z,6.10
2022-11-15T14:54:04.637Z,6.10
2022-11-15T14:57:08.056Z,6.20
2022-11-15T15:00:12.051Z,6.20
2022-11-15T15:03:19.332Z,6.20
2022-11-15T15:06:22.773Z,6.10
2022-11-15T15:09:26.177Z,6.10
2022-11-15T15:12:30.232Z,6.00
2022-11-15T15:15:36.122Z,5.90
2022-11-15T15:18:40.855Z,5.90
2022-11-15T15:21:44.335Z,5.90
2022-11-15T15:24:49.039Z,5.90
2022-11-15T15:27:52.702Z,5.90
2022-11-15T15:30:56.025Z,5.80
2022-11-15T15:34:00.751Z,5.80
2022-11-15T15:37:20.942Z,5.80
2022-11-15T15:40:29.818Z,5.80
2022-11-15T15:43:33.048Z,5.80
2022-11-15T15:46:36.681Z,5.80
2022-11-15T15:49:41.340Z,5.80
2022-11-15T15:52:44.525Z,5.70
2022-11-15T15:55:47.834Z,5.70
2022-11-15T15:58:53.450Z,5.70
2022-11-15T16:01:56.777Z,5.60
2022-11-15T16:05:01.415Z,5.70
2022-11-15T16:08:04.874Z,5.60
2022-11-15T16:11:08.962Z,5.60
2022-11-15T16:14:12.188Z,5.50
2022-11-15T16:17:20.516Z,5.50
2022-11-15T16:20:37.519Z,5.40
2022-11-15T16:23:41.026Z,5.30
2022-11-15T16:26:44.531Z,5.30
2022-11-15T16:29:48.678Z,5.30
2022-11-15T16:32:52.422Z,5.20
2022-11-15T16:36:00.234Z,5.20
2022-11-15T16:39:05.240Z,5.20
2022-11-15T16:42:08.727Z,5.10
2022-11-15T16:45:14.553Z,5.10
2022-11-15T16:48:25.332Z,5.10
2022-11-15T16:51:30.212Z,5.10
2022-11-15T16:54:33.490Z,5.10
2022-11-15T16:57:36.743Z,5.20
2022-11-15T17:00:40.307Z,5.20
2022-11-15T17:03:43.827Z,5.20
2022-11-15T17:06:50.243Z,5.20
2022-11-15T17:09:54.200Z,5.20
2022-11-15T17:12:57.769Z,5.10
2022-11-15T17:16:09.623Z,5.00
2022-11-15T17:19:17.728Z,5.00
2022-11-15T17:22:23.000Z,5.00
2022-11-15T17:25:26.435Z,5.00
2022-11-15T17:28:29.997Z,5.10
2022-11-15T17:31:34.208Z,5.10
2022-11-15T17:34:37.577Z,5.10
2022-11-15T17:37:42.452Z,5.10
2022-11-15T17:40:45.821Z,5.20
2022-11-15T17:43:49.556Z,5.20
2022-11-15T17:46:52.808Z,5.20
2022-11-15T17:49:56.092Z,5.30
2022-11-15T17:53:02.161Z,5.30
2022-11-15T17:56:06.716Z,5.40
2022-11-15T17:59:14.769Z,5.40
2022-11-15T18:02:20.592Z,5.50
2022-11-15T18:05:26.952Z,5.50
2022-11-15T18:08:31.607Z,5.60
2022-11-15T18:11:38.389Z,5.60
2022-11-15T18:14:41.775Z,5.60
2022-11-15T18:17:45.254Z,5.60
2022-11-15T18:20:48.826Z,5.70
2022-11-15T18:23:55.684Z,5.70
2022-11-15T18:26:59.895Z,5.70
2022-11-15T18:30:03.392Z,5.70
2022-11-15T18:33:06.666Z,5.70
2022-11-15T18:36:16.854Z,5.70
2022-11-15T18:39:28.874Z,5.70
2022-11-15T18:42:39.784Z,5.90
2022-11-15T18:45:45.786Z,5.80
2022-11-15T18:48:54.843Z,5.80
2022-11-15T18:52:08.577Z,5.80
2022-11-15T18:55:31.277Z,5.80
2022-11-15T18:58:39.781Z,5.70
2022-11-15T19:01:52.480Z,5.70
2022-11-15T19:05:09.952Z,5.70
2022-11-15T19:08:22.918Z,5.70
2022-11-15T19:11:37.668Z,5.70
2022-11-15T19:14:50.033Z,5.50
2022-11-15T19:18:30.340Z,5.60
2022-11-15T19:25:22.258Z,5.50
2022-11-15T19:28:48.516Z,5.50
2022-11-15T19:31:57.024Z,5.50
2022-11-15T19:35:02.440Z,5.60
2022-11-15T19:38:14.431Z,5.50
2022-11-15T19:41:23.432Z,5.60
2022-11-15T19:44:51.354Z,5.60
2022-11-15T19:48:14.312Z,5.60
2022-11-15T19:51:36.698Z,5.50
2022-11-15T19:54:46.741Z,5.50
2022-11-15T19:57:56.246Z,5.50
2022-11-15T20:01:21.128Z,5.50
2022-11-15T20:04:32.909Z,5.60
2022-11-15T20:07:39.445Z,5.60
2022-11-15T20:10:47.979Z,5.60
2022-11-15T20:13:51.808Z,5.60
2022-11-15T20:16:57.288Z,5.60
2022-11-15T20:20:01.277Z,5.50
2022-11-15T20:23:07.291Z,5.50
2022-11-15T20:26:11.733Z,5.50
2022-11-15T20:29:16.084Z,5.50
2022-11-15T20:32:21.037Z,5.50
2022-11-15T20:35:24.746Z,5.50
2022-11-15T20:38:28.293Z,5.50
2022-11-15T20:41:33.021Z,5.60
2022-11-15T20:44:36.636Z,5.60
2022-11-15T20:47:41.571Z,5.50
2022-11-15T20:50:46.903Z,5.60
2022-11-15T20:53:50.459Z,5.60
2022-11-15T20:56:55.079Z,5.60
2022-11-15T21:00:04.387Z,5.60
2022-11-15T21:03:10.876Z,5.50
2022-11-15T21:06:14.660Z,5.50
2022-11-15T21:09:35.547Z,5.50
2022-11-15T21:12:38.852Z,5.50
2022-11-15T21:15:42.465Z,5.40
2022-11-15T21:18:47.258Z,5.40
2022-11-15T21:21:50.990Z,5.40
2022-11-15T21:24:54.662Z,5.30
2022-11-15T21:27:59.427Z,5.40
2022-11-15T21:31:02.905Z,5.30
2022-11-15T21:34:07.938Z,5.30
2022-11-15T21:37:12.842Z,5.30
2022-11-15T21:40:25.439Z,5.30
2022-11-15T21:43:29.782Z,5.30
2022-11-15T21:46:33.974Z,5.20
2022-11-15T21:49:38.680Z,5.20
2022-11-15T21:52:42.070Z,5.10
2022-11-15T21:55:45.847Z,5.10
2022-11-15T21:58:49.948Z,5.10
2022-11-15T22:02:10.577Z,5.20
2022-11-15T22:08:37.386Z,5.10
2022-11-15T22:11:41.245Z,5.10
2022-11-15T22:14:45.286Z,5.10
2022-11-15T22:18:01.305Z,5.10
2022-11-15T22:21:08.081Z,5.20
2022-11-15T22:24:11.705Z,5.20
2022-11-15T22:27:15.210Z,5.20
2022-11-15T22:30:19.593Z,5.20
2022-11-15T22:33:26.605Z,5.20
2022-11-15T22:36:46.757Z,5.20
2022-11-15T22:39:55.521Z,5.20
2022-11-15T22:42:58.985Z,5.10
2022-11-15T22:46:03.942Z,5.20
2022-11-15T22:49:09.330Z,5.20
2022-11-15T22:52:14.582Z,5.20
2022-11-15T22:55:18.576Z,5.10
2022-11-15T22:58:22.796Z,5.10
2022-11-15T23:01:26.197Z,5.10
2022-11-15T23:04:30.086Z,5.10
2022-11-15T23:07:35.536Z,5.00
2022-11-15T23:10:56.799Z,5.10
2022-11-15T23:14:00.465Z,5.00
2022-11-15T23:17:04.092Z,5.10
2022-11-15T23:20:36.443Z,5.10
2022-11-15T23:23:33.698Z,5.10
2022-11-15T23:26:38.198Z,5.10
2022-11-15T23:29:55.404Z,5.10
2022-11-15T23:33:16.145Z,5.10
2022-11-15T23:36:19.634Z,5.10
2022-11-15T23:39:24.633Z,5.10
2022-11-15T23:42:28.155Z,5.00
2022-11-15T23:45:31.688Z,5.00
2022-11-15T23:48:35.587Z,5.00
2022-11-15T23:51:39.418Z,5.00
2022-11-15T23:54:44.370Z,4.90
2022-11-15T23:57:47.962Z,5.00
